Time;durP1;ratioP1;P1;durP2;ratioP2;P2;SDS_P1;SDS_P2;PMS_P1;PMS_P2;Temp;Humidity;BMP_temperature;BMP_pressure;BME280_temperature;BME280_humidity;BME280_pressure;Samples;Min_cycle;Max_cycle;Signal;HPM_P1;HPM_P2
2023/08/15 00:01:14;;;;;;;12.32;5.15;;;23.40;99.90;;;;;;4903230;29;20393;-83
2023/08/15 00:03:40;;;;;;;8.18;5.38;;;23.40;99.90;;;;;;4908280;29;20033;-83
2023/08/15 00:06:05;;;;;;;6.78;5.03;;;23.40;99.90;;;;;;4894425;29;20033;-83
2023/08/15 00:08:31;;;;;;;8.55;5.57;;;23.40;99.90;;;;;;4903201;29;20437;-83
2023/08/15 00:10:57;;;;;;;11.35;5.35;;;23.40;99.90;;;;;;4905758;29;20088;-83
2023/08/15 00:13:22;;;;;;;6.32;4.93;;;23.30;99.90;;;;;;4903000;29;20108;-83
2023/08/15 00:15:48;;;;;;;9.45;5.40;;;23.30;99.90;;;;;;4905786;29;20055;-83
2023/08/15 00:18:16;;;;;;;6.63;4.95;;;23.30;99.90;;;;;;4906281;29;20056;-83
2023/08/15 00:20:41;;;;;;;6.65;5.10;;;23.20;99.90;;;;;;4901949;29;20025;-84
2023/08/15 00:23:07;;;;;;;7.28;4.82;;;23.20;99.90;;;;;;4902644;29;20123;-83
2023/08/15 00:25:33;;;;;;;9.63;5.43;;;23.20;99.90;;;;;;4903708;29;20040;-83
2023/08/15 00:27:59;;;;;;;7.60;5.57;;;23.20;99.90;;;;;;4905387;29;20472;-84
2023/08/15 00:30:24;;;;;;;11.48;5.70;;;23.20;99.90;;;;;;4895626;29;20037;-84
2023/08/15 00:32:50;;;;;;;7.05;5.25;;;23.20;99.90;;;;;;4895642;29;20115;-83
2023/08/15 00:35:16;;;;;;;10.48;5.57;;;23.20;99.90;;;;;;4902781;29;20499;-84
2023/08/15 00:37:41;;;;;;;10.77;5.38;;;23.10;99.90;;;;;;4892681;29;20059;-82
2023/08/15 00:40:07;;;;;;;9.73;5.30;;;23.00;99.90;;;;;;4893981;29;20147;-84
2023/08/15 00:42:35;;;;;;;9.25;5.28;;;23.10;99.90;;;;;;4902984;29;20039;-84
2023/08/15 00:45:01;;;;;;;10.07;5.50;;;23.00;99.90;;;;;;4903857;29;20025;-84
2023/08/15 00:47:27;;;;;;;6.50;4.85;;;23.00;99.90;;;;;;4906542;29;20032;-84
2023/08/15 00:49:53;;;;;;;10.00;5.13;;;23.00;99.90;;;;;;4893244;29;20504;-84
2023/08/15 00:52:19;;;;;;;7.00;4.97;;;23.00;99.90;;;;;;4908214;29;20492;-83
2023/08/15 00:54:49;;;;;;;14.40;5.75;;;23.00;99.90;;;;;;4904970;29;20028;-83
2023/08/15 00:57:15;;;;;;;11.27;5.47;;;22.90;99.90;;;;;;4900275;29;20636;-84
2023/08/15 00:59:44;;;;;;;6.35;5.65;;;22.90;99.90;;;;;;4904095;29;20115;-84
2023/08/15 01:02:10;;;;;;;7.60;4.82;;;22.90;99.90;;;;;;4903373;29;20043;-83
2023/08/15 01:04:40;;;;;;;8.77;5.75;;;22.80;99.90;;;;;;4905751;29;20064;-84
2023/08/15 01:07:06;;;;;;;7.63;6.07;;;22.80;99.90;;;;;;4901261;29;20028;-84
2023/08/15 01:09:32;;;;;;;10.90;5.97;;;22.80;99.90;;;;;;4906831;29;20076;-84
2023/08/15 01:12:19;;;;;;;6.70;5.30;;;22.60;99.90;;;;;;4905004;29;20016;-84
2023/08/15 01:14:52;;;;;;;10.27;5.75;;;22.60;99.90;;;;;;4892225;29;20033;-83
2023/08/15 01:17:30;;;;;;;7.88;5.43;;;22.50;99.90;;;;;;4890607;29;20250;-84
2023/08/15 01:20:00;;;;;;;9.82;6.07;;;22.50;99.90;;;;;;4904481;29;20099;-83
2023/08/15 01:22:28;;;;;;;6.80;5.45;;;22.30;99.90;;;;;;4904198;29;20028;-83
2023/08/15 01:24:54;;;;;;;7.00;5.47;;;22.40;99.90;;;;;;4903032;29;20040;-83
2023/08/15 01:27:20;;;;;;;12.23;6.57;;;22.50;99.90;;;;;;4899921;29;20446;-84
2023/08/15 01:29:46;;;;;;;9.95;5.55;;;22.60;99.90;;;;;;4903775;29;20036;-84
2023/08/15 01:32:30;;;;;;;9.43;5.45;;;22.60;99.90;;;;;;4879453;29;20037;-84
2023/08/15 01:35:06;;;;;;;8.15;6.07;;;22.60;99.90;;;;;;4896782;29;20036;-83
2023/08/15 01:37:32;;;;;;;8.48;5.57;;;22.70;99.90;;;;;;4899740;29;20024;-83
2023/08/15 01:40:00;;;;;;;14.00;5.55;;;22.70;99.90;;;;;;4904994;29;20039;-84
2023/08/15 01:42:29;;;;;;;11.38;5.47;;;22.70;99.90;;;;;;4892987;29;20028;-84
2023/08/15 01:44:55;;;;;;;6.72;5.28;;;22.80;99.90;;;;;;4908487;29;20024;-83
2023/08/15 01:47:21;;;;;;;11.82;5.72;;;22.80;99.90;;;;;;4898978;29;20028;-82
2023/08/15 01:49:47;;;;;;;22.42;5.95;;;22.70;99.90;;;;;;4898396;29;20084;-84
2023/08/15 01:52:13;;;;;;;8.68;5.93;;;22.70;99.90;;;;;;4915380;29;20047;-84
2023/08/15 01:54:38;;;;;;;11.45;5.63;;;22.70;99.90;;;;;;4901862;29;20034;-84
2023/08/15 01:57:04;;;;;;;15.32;6.35;;;22.70;99.90;;;;;;4901200;29;20024;-84
2023/08/15 01:59:29;;;;;;;8.05;6.00;;;22.60;99.90;;;;;;4889321;29;20041;-84
2023/08/15 02:01:55;;;;;;;13.77;6.03;;;22.60;99.90;;;;;;4885668;29;20052;-84
2023/08/15 02:04:20;;;;;;;9.70;6.03;;;22.60;99.90;;;;;;4886499;29;20036;-83
2023/08/15 02:06:46;;;;;;;11.40;6.70;;;22.60;99.90;;;;;;4900104;29;20548;-83
2023/08/15 02:09:12;;;;;;;10.35;6.50;;;22.60;99.90;;;;;;4893157;29;20483;-84
2023/08/15 02:11:37;;;;;;;13.77;6.25;;;22.60;99.90;;;;;;4903517;29;20084;-83
2023/08/15 02:14:05;;;;;;;17.67;6.68;;;22.50;99.90;;;;;;4902164;29;20461;-83
2023/08/15 02:16:31;;;;;;;9.77;6.40;;;22.50;99.90;;;;;;4901732;29;20103;-84
2023/08/15 02:18:56;;;;;;;11.98;7.22;;;22.50;99.90;;;;;;4902870;29;20111;-84
2023/08/15 02:21:22;;;;;;;9.15;6.75;;;22.50;99.90;;;;;;4888768;29;20032;-83
2023/08/15 02:23:48;;;;;;;11.77;7.03;;;22.50;99.90;;;;;;4904034;29;20717;-83
2023/08/15 02:26:13;;;;;;;10.55;7.18;;;22.40;99.90;;;;;;4899015;29;20747;-83
2023/08/15 02:28:39;;;;;;;10.30;7.00;;;22.40;99.90;;;;;;4901013;29;20337;-83
2023/08/15 02:31:10;;;;;;;9.88;7.20;;;22.30;99.90;;;;;;4903816;29;20035;-83
2023/08/15 02:33:35;;;;;;;12.18;7.60;;;22.20;99.90;;;;;;4902336;29;20054;-84
2023/08/15 02:36:05;;;;;;;14.43;7.50;;;22.10;99.90;;;;;;4903188;29;20548;-84
2023/08/15 02:38:34;;;;;;;12.73;7.75;;;22.00;99.90;;;;;;4906964;29;20032;-83
2023/08/15 02:41:00;;;;;;;10.07;7.57;;;22.20;99.90;;;;;;4902322;29;20532;-83
2023/08/15 02:43:26;;;;;;;13.63;7.15;;;22.20;99.90;;;;;;4904664;29;20100;-83
2023/08/15 02:45:51;;;;;;;12.25;7.13;;;22.20;99.90;;;;;;4892515;29;20024;-84
2023/08/15 02:48:17;;;;;;;12.88;7.63;;;22.30;99.90;;;;;;4889644;29;20509;-84
2023/08/15 02:50:42;;;;;;;14.38;7.50;;;22.30;99.90;;;;;;4885728;29;20120;-83
2023/08/15 02:53:08;;;;;;;11.38;7.47;;;22.30;99.90;;;;;;4900290;29;20466;-83
2023/08/15 02:55:36;;;;;;;15.68;7.10;;;22.40;99.90;;;;;;4888434;29;20120;-83
2023/08/15 02:58:02;;;;;;;13.63;7.90;;;22.30;99.90;;;;;;4889539;29;20584;-84
2023/08/15 03:00:27;;;;;;;10.90;7.10;;;22.30;99.90;;;;;;4902220;29;20043;-84
2023/08/15 03:02:53;;;;;;;12.73;7.55;;;22.40;99.90;;;;;;4888864;29;20333;-84
2023/08/15 03:05:19;;;;;;;13.18;7.60;;;22.50;99.90;;;;;;4889110;29;20402;-85
2023/08/15 03:07:45;;;;;;;12.13;7.68;;;22.30;99.90;;;;;;4893589;29;20032;-84
2023/08/15 03:10:10;;;;;;;14.52;7.43;;;22.30;99.90;;;;;;4907205;29;20119;-85
2023/08/15 03:12:36;;;;;;;16.17;8.00;;;22.30;99.90;;;;;;4893679;29;20033;-84
2023/08/15 03:15:02;;;;;;;9.02;7.45;;;22.20;99.90;;;;;;4902143;29;20020;-84
2023/08/15 03:17:27;;;;;;;9.05;6.85;;;22.30;99.90;;;;;;4891859;29;20394;-85
2023/08/15 03:19:54;;;;;;;12.52;7.35;;;22.30;99.90;;;;;;4905504;29;20028;-85
2023/08/15 03:22:20;;;;;;;11.90;6.75;;;22.40;99.90;;;;;;4902169;29;20038;-84
2023/08/15 03:24:46;;;;;;;11.80;6.80;;;22.40;99.90;;;;;;4900274;29;20469;-84
2023/08/15 03:27:12;;;;;;;14.27;7.05;;;22.30;99.90;;;;;;4886264;29;20103;-84
2023/08/15 03:29:37;;;;;;;9.82;6.78;;;22.40;99.90;;;;;;4903976;29;20164;-84
2023/08/15 03:32:03;;;;;;;9.20;6.78;;;22.30;99.90;;;;;;4906950;29;20029;-84
2023/08/15 03:34:29;;;;;;;10.75;6.68;;;22.30;99.90;;;;;;4904939;29;20036;-85
2023/08/15 03:36:55;;;;;;;18.70;6.07;;;22.30;99.90;;;;;;4907358;29;20083;-84
2023/08/15 03:39:21;;;;;;;11.48;6.60;;;22.40;99.90;;;;;;4908855;29;20484;-84
2023/08/15 03:41:46;;;;;;;10.23;6.40;;;22.30;99.90;;;;;;4897217;29;20039;-84
2023/08/15 03:44:14;;;;;;;12.30;6.57;;;22.30;99.90;;;;;;4893350;29;20036;-85
2023/08/15 03:46:44;;;;;;;11.82;7.03;;;22.20;99.90;;;;;;4887303;29;20054;-84
2023/08/15 03:49:10;;;;;;;12.50;7.22;;;22.30;99.90;;;;;;4905618;29;20039;-85
2023/08/15 03:51:35;;;;;;;11.13;6.88;;;22.20;99.90;;;;;;4909852;29;20047;-85
2023/08/15 03:54:01;;;;;;;15.15;6.90;;;22.20;99.90;;;;;;4906819;29;20039;-85
2023/08/15 03:56:26;;;;;;;10.20;7.30;;;22.20;99.90;;;;;;4888547;29;20029;-85
2023/08/15 03:58:52;;;;;;;12.15;7.70;;;22.30;99.90;;;;;;4904390;29;20035;-84
2023/08/15 04:01:18;;;;;;;10.88;7.55;;;22.20;99.90;;;;;;4905691;29;20020;-84
2023/08/15 04:03:44;;;;;;;13.27;7.82;;;22.20;99.90;;;;;;4906363;29;20083;-84
2023/08/15 04:06:09;;;;;;;14.90;7.68;;;22.30;99.90;;;;;;4907325;29;20547;-84
2023/08/15 04:08:35;;;;;;;14.43;7.93;;;22.30;99.90;;;;;;4912284;29;20208;-90
2023/08/15 04:11:00;;;;;;;12.93;7.72;;;22.40;99.90;;;;;;4898469;29;20818;-85
2023/08/15 04:13:26;;;;;;;19.70;7.70;;;22.40;99.90;;;;;;4888418;29;20083;-85
2023/08/15 04:15:52;;;;;;;15.35;7.80;;;22.40;99.90;;;;;;4894877;29;20531;-81
2023/08/15 04:18:17;;;;;;;13.48;7.55;;;22.40;99.90;;;;;;4890065;29;20031;-81
2023/08/15 04:20:43;;;;;;;15.88;7.15;;;22.30;99.90;;;;;;4903855;29;20040;-81
2023/08/15 04:23:09;;;;;;;11.82;7.28;;;22.30;99.90;;;;;;4896195;29;20032;-80
2023/08/15 04:25:37;;;;;;;11.15;7.78;;;22.20;99.90;;;;;;4907109;29;20052;-81
2023/08/15 04:28:03;;;;;;;20.67;7.18;;;22.20;99.90;;;;;;4884491;29;20031;-81
2023/08/15 04:30:30;;;;;;;10.45;6.38;;;22.00;99.90;;;;;;4906063;29;20039;-81
2023/08/15 04:32:58;;;;;;;13.40;6.38;;;22.10;99.90;;;;;;4906190;29;20051;-81
2023/08/15 04:35:24;;;;;;;12.77;6.60;;;22.00;99.90;;;;;;4904983;29;20483;-80
2023/08/15 04:37:50;;;;;;;11.75;6.97;;;22.00;99.90;;;;;;4905680;29;20111;-81
2023/08/15 04:40:30;;;;;;;11.02;6.35;;;21.90;99.90;;;;;;4906975;29;20028;-80
2023/08/15 04:42:56;;;;;;;15.40;6.57;;;21.90;99.90;;;;;;4905559;29;20084;-80
2023/08/15 04:45:22;;;;;;;14.00;6.53;;;21.80;99.90;;;;;;4895268;29;20028;-81
2023/08/15 04:47:47;;;;;;;13.20;6.00;;;21.70;99.90;;;;;;4906796;29;20116;-80
2023/08/15 04:50:13;;;;;;;17.77;5.82;;;21.50;99.90;;;;;;4909719;29;20048;-81
2023/08/15 04:52:39;;;;;;;11.55;5.80;;;21.50;99.90;;;;;;4906420;29;20036;-80
2023/08/15 04:55:05;;;;;;;14.13;6.20;;;21.50;99.90;;;;;;4904247;29;20025;-81
2023/08/15 04:57:30;;;;;;;11.32;5.68;;;21.40;99.90;;;;;;4903611;29;20028;-80
2023/08/15 04:59:56;;;;;;;9.70;6.35;;;21.50;99.90;;;;;;4889734;29;20028;-81
2023/08/15 05:02:22;;;;;;;9.80;5.57;;;21.40;99.90;;;;;;4891214;29;20047;-81
2023/08/15 05:04:47;;;;;;;11.48;5.88;;;21.20;99.90;;;;;;4894049;29;20032;-81
2023/08/15 05:07:13;;;;;;;9.50;5.75;;;21.20;99.90;;;;;;4902820;29;20075;-81
2023/08/15 05:09:39;;;;;;;13.57;6.78;;;21.00;99.90;;;;;;4907405;29;20241;-81
2023/08/15 05:12:05;;;;;;;13.00;5.15;;;21.10;99.90;;;;;;4906187;29;20381;-81
2023/08/15 05:14:31;;;;;;;13.35;5.30;;;21.10;99.90;;;;;;4895964;29;20035;-81
2023/08/15 05:16:57;;;;;;;11.82;5.07;;;21.10;99.90;;;;;;4897354;29;20544;-80
2023/08/15 05:19:22;;;;;;;9.80;4.90;;;21.10;99.90;;;;;;4888007;29;20040;-80
2023/08/15 05:21:50;;;;;;;10.80;5.50;;;21.10;99.90;;;;;;4901193;29;20028;-81
2023/08/15 05:24:16;;;;;;;11.07;5.25;;;21.10;99.90;;;;;;4905847;29;20031;-80
2023/08/15 05:26:41;;;;;;;10.00;4.88;;;21.10;99.90;;;;;;4905516;29;20035;-81
2023/08/15 05:29:07;;;;;;;18.67;6.15;;;21.20;99.90;;;;;;4905844;29;20075;-80
2023/08/15 05:31:33;;;;;;;10.60;5.40;;;21.20;99.90;;;;;;4906060;29;20032;-81
2023/08/15 05:33:59;;;;;;;9.60;4.78;;;21.10;99.90;;;;;;4899144;29;20035;-80
2023/08/15 05:36:24;;;;;;;13.20;4.93;;;21.00;99.90;;;;;;4887432;29;20051;-81
2023/08/15 05:38:50;;;;;;;10.70;4.88;;;21.00;99.90;;;;;;4884974;29;20441;-81
2023/08/15 05:41:16;;;;;;;10.80;4.63;;;20.80;99.90;;;;;;4886349;29;20035;-81
2023/08/15 05:43:41;;;;;;;10.77;4.18;;;20.90;99.90;;;;;;4906981;29;20035;-80
2023/08/15 05:46:07;;;;;;;11.45;4.55;;;20.80;99.90;;;;;;4904232;29;20031;-81
2023/08/15 05:48:33;;;;;;;10.60;4.05;;;20.70;99.90;;;;;;4903838;29;20473;-80
2023/08/15 05:50:58;;;;;;;13.63;4.05;;;20.80;99.90;;;;;;4889541;29;20032;-80
2023/08/15 05:53:24;;;;;;;11.20;4.15;;;20.90;99.90;;;;;;4905583;29;20104;-81
2023/08/15 05:55:50;;;;;;;8.95;4.22;;;20.90;99.90;;;;;;4894740;29;20071;-80
2023/08/15 05:58:15;;;;;;;17.35;4.18;;;20.90;99.90;;;;;;4889095;29;20400;-80
2023/08/15 06:00:43;;;;;;;8.40;4.25;;;20.90;99.90;;;;;;4905041;29;20028;-80
2023/08/15 06:03:09;;;;;;;7.05;3.40;;;20.80;99.90;;;;;;4889907;29;20137;-80
2023/08/15 06:05:34;;;;;;;6.75;3.65;;;21.00;99.90;;;;;;4905172;29;20120;-80
2023/08/15 06:08:00;;;;;;;9.23;3.92;;;21.10;99.90;;;;;;4903542;29;20467;-81
2023/08/15 06:10:25;;;;;;;18.38;4.57;;;21.10;99.90;;;;;;4904367;29;20523;-80
2023/08/15 06:12:51;;;;;;;13.52;4.68;;;21.20;99.90;;;;;;4905322;29;20048;-81
2023/08/15 06:15:17;;;;;;;16.00;4.20;;;21.10;99.90;;;;;;4900748;29;20024;-80
2023/08/15 06:17:42;;;;;;;11.70;3.72;;;21.20;99.90;;;;;;4906809;29;20027;-80
2023/08/15 06:20:10;;;;;;;9.65;3.70;;;21.20;99.90;;;;;;4885161;29;20032;-80
2023/08/15 06:22:38;;;;;;;9.27;3.78;;;21.30;99.90;;;;;;4888561;29;20484;-80
2023/08/15 06:25:03;;;;;;;8.43;3.85;;;21.30;99.90;;;;;;4889336;29;20037;-80
2023/08/15 06:27:29;;;;;;;8.48;3.60;;;21.30;99.90;;;;;;4886554;29;20095;-80
2023/08/15 06:29:55;;;;;;;11.20;4.25;;;21.20;99.90;;;;;;4902989;29;20438;-80
2023/08/15 06:32:28;;;;;;;11.65;3.70;;;21.30;99.90;;;;;;4902826;29;20031;-80
2023/08/15 06:34:54;;;;;;;8.93;3.67;;;21.30;99.90;;;;;;4905596;29;20115;-80
2023/08/15 06:37:19;;;;;;;10.85;3.20;;;21.40;99.90;;;;;;4903718;29;20111;-80
2023/08/15 06:39:45;;;;;;;12.00;3.63;;;21.40;99.90;;;;;;4903952;29;20033;-80
2023/08/15 06:42:11;;;;;;;14.63;3.72;;;21.50;99.90;;;;;;4905416;29;20093;-81
2023/08/15 06:44:37;;;;;;;15.35;3.97;;;21.50;99.90;;;;;;4893564;29;20363;-80
2023/08/15 06:47:02;;;;;;;12.25;3.13;;;21.60;99.90;;;;;;4904364;29;20056;-82
2023/08/15 06:49:28;;;;;;;10.43;3.67;;;21.60;99.90;;;;;;4894315;29;20024;-80
2023/08/15 06:51:53;;;;;;;8.05;3.58;;;21.70;99.90;;;;;;4893627;29;20029;-80
2023/08/15 06:54:19;;;;;;;10.55;3.78;;;21.60;99.90;;;;;;4905229;29;20764;-80
2023/08/15 06:56:45;;;;;;;9.32;3.33;;;21.60;99.90;;;;;;4889648;29;20089;-80
2023/08/15 06:59:13;;;;;;;6.38;3.40;;;21.70;99.90;;;;;;4888898;29;20064;-80
2023/08/15 07:01:39;;;;;;;10.32;3.58;;;21.70;99.90;;;;;;4893162;29;20104;-80
2023/08/15 07:04:06;;;;;;;11.48;4.07;;;21.70;99.60;;;;;;4902696;29;20389;-80
2023/08/15 07:06:32;;;;;;;8.05;3.58;;;21.50;99.90;;;;;;4887388;29;20024;-80
2023/08/15 07:08:59;;;;;;;13.95;3.30;;;21.70;99.90;;;;;;4904213;29;20537;-80
2023/08/15 07:11:24;;;;;;;10.88;3.45;;;21.70;99.90;;;;;;4909133;29;20440;-80
2023/08/15 07:13:50;;;;;;;12.50;3.38;;;21.70;99.90;;;;;;4905219;29;20032;-80
2023/08/15 07:16:18;;;;;;;14.32;3.67;;;21.80;99.60;;;;;;4906130;29;20024;-81
2023/08/15 07:18:45;;;;;;;5.55;2.92;;;22.00;99.30;;;;;;4888985;29;20032;-80
2023/08/15 07:21:11;;;;;;;10.32;3.38;;;22.00;99.40;;;;;;4889436;29;20033;-80
2023/08/15 07:23:40;;;;;;;7.78;3.40;;;22.10;99.50;;;;;;4906788;29;20043;-80
2023/08/15 07:26:05;;;;;;;7.15;3.65;;;22.10;98.90;;;;;;4907534;29;20024;-80
2023/08/15 07:28:33;;;;;;;7.00;3.30;;;22.20;99.00;;;;;;4906896;29;20719;-80
2023/08/15 07:30:59;;;;;;;6.85;2.95;;;22.10;98.90;;;;;;4906529;29;20028;-80
2023/08/15 07:33:25;;;;;;;13.57;3.08;;;22.20;98.90;;;;;;4892320;29;20040;-80
2023/08/15 07:38:20;;;;;;;9.88;2.88;;;22.30;98.30;;;;;;4946863;29;20078;-80
2023/08/15 07:40:47;;;;;;;10.98;3.30;;;22.30;98.40;;;;;;4949976;29;20043;-80
2023/08/15 07:45:48;;;;;;;9.13;3.63;;;22.20;99.20;;;;;;4957004;26;20262;-79
2023/08/15 07:48:14;;;;;;;10.27;3.58;;;22.30;98.90;;;;;;4961891;28;20035;-80
2023/08/15 07:50:40;;;;;;;11.43;3.45;;;22.20;98.90;;;;;;4948002;28;20074;-85
2023/08/15 07:55:41;;;;;;;10.40;3.50;;;22.20;98.80;;;;;;5027995;23;20061;-84
2023/08/15 07:58:09;;;;;;;11.65;3.00;;;22.30;99.30;;;;;;4983131;28;20030;-85
2023/08/15 08:00:35;;;;;;;14.13;3.53;;;22.40;98.80;;;;;;4978507;28;20464;-86
2023/08/15 08:03:00;;;;;;;9.77;3.55;;;22.50;98.50;;;;;;4990587;28;20762;-79
2023/08/15 08:05:28;;;;;;;12.63;3.55;;;22.40;98.90;;;;;;4987922;28;20034;-79
2023/08/15 08:07:53;;;;;;;13.85;3.78;;;22.50;98.40;;;;;;4970431;28;20030;-81
2023/08/15 08:10:19;;;;;;;10.32;3.53;;;22.70;98.30;;;;;;4967173;28;20030;-80
2023/08/15 08:12:45;;;;;;;4.60;2.70;;;22.80;98.50;;;;;;4990230;28;20026;-85
2023/08/15 08:15:11;;;;;;;6.30;3.42;;;22.80;97.50;;;;;;4989683;28;20033;-85
2023/08/15 08:17:37;;;;;;;5.35;2.50;;;22.90;97.70;;;;;;4989233;28;20022;-85
2023/08/15 08:20:08;;;;;;;9.25;3.50;;;23.00;97.70;;;;;;4988471;28;20517;-88
2023/08/15 08:22:33;;;;;;;7.30;2.67;;;23.00;97.10;;;;;;4968476;28;20040;-85
2023/08/15 08:25:19;;;;;;;7.90;2.80;;;23.00;96.60;;;;;;4989583;28;20026;-81
2023/08/15 08:27:45;;;;;;;8.98;3.35;;;23.20;96.70;;;;;;4972140;28;20033;-90
2023/08/15 08:30:12;;;;;;;8.18;2.92;;;23.40;96.80;;;;;;4992481;28;20022;-90
2023/08/15 08:32:38;;;;;;;8.02;3.63;;;23.30;97.00;;;;;;4992352;28;20026;-88
2023/08/15 08:35:05;;;;;;;7.55;3.75;;;23.40;96.70;;;;;;4971960;28;20383;-84
2023/08/15 08:37:34;;;;;;;17.88;5.88;;;23.40;96.50;;;;;;4991216;28;20026;-87
2023/08/15 08:40:00;;;;;;;6.15;3.20;;;23.50;96.50;;;;;;4988897;28;20014;-87
2023/08/15 08:42:28;;;;;;;8.43;3.38;;;23.60;96.30;;;;;;4991267;28;20023;-87
2023/08/15 08:44:55;;;;;;;6.30;3.40;;;23.70;96.10;;;;;;4992087;28;20030;-87
2023/08/15 08:47:24;;;;;;;6.28;3.00;;;23.80;95.50;;;;;;5001174;28;20086;-86
2023/08/15 08:49:52;;;;;;;6.60;2.70;;;23.80;96.20;;;;;;5002910;28;20023;-88
2023/08/15 08:52:18;;;;;;;5.82;2.80;;;24.10;96.20;;;;;;4991647;28;20035;-88
2023/08/15 08:54:45;;;;;;;6.80;2.78;;;24.30;94.80;;;;;;4989613;28;20058;-88
2023/08/15 08:57:11;;;;;;;7.25;3.55;;;24.50;94.60;;;;;;4974024;28;20508;-87
2023/08/15 08:59:41;;;;;;;9.50;3.50;;;24.60;94.10;;;;;;4988600;28;20022;-87
2023/08/15 09:02:11;;;;;;;8.70;2.38;;;24.40;94.00;;;;;;5103548;23;20059;-87
2023/08/15 09:04:37;;;;;;;7.72;2.13;;;24.30;94.10;;;;;;4929695;28;20647;-87
2023/08/15 09:07:03;;;;;;;8.27;2.33;;;24.50;93.40;;;;;;4918027;28;20031;-87
2023/08/15 09:09:29;;;;;;;9.82;3.05;;;24.70;93.20;;;;;;4929074;28;20042;-86
2023/08/15 09:11:54;;;;;;;5.03;2.38;;;25.00;92.50;;;;;;4927764;28;20162;-89
2023/08/15 09:14:22;;;;;;;9.30;2.42;;;25.20;91.90;;;;;;4942952;28;20027;-86
2023/08/15 09:16:48;;;;;;;3.38;1.98;;;25.50;91.40;;;;;;4928680;28;20033;-84
2023/08/15 09:19:15;;;;;;;266.30;137.55;;;25.80;91.00;;;;;;4943763;28;20035;-87
2023/08/15 09:21:41;;;;;;;24.38;9.30;;;26.20;90.60;;;;;;4940638;28;20042;-86
2023/08/15 09:24:07;;;;;;;7.00;2.00;;;26.70;90.20;;;;;;4924421;29;20023;-87
2023/08/15 09:26:34;;;;;;;7.57;3.20;;;26.90;87.70;;;;;;4942883;28;20077;-87
2023/08/15 09:29:02;;;;;;;4.60;2.58;;;27.20;87.60;;;;;;4928135;28;20441;-86
2023/08/15 09:31:30;;;;;;;7.20;3.17;;;27.20;85.80;;;;;;4943847;28;20057;-88
2023/08/15 09:33:58;;;;;;;8.60;2.97;;;27.40;84.60;;;;;;4927160;28;20027;-88
2023/08/15 09:36:24;;;;;;;6.70;3.83;;;27.70;83.70;;;;;;5078619;23;20060;-80
2023/08/15 09:38:59;;;;;;;5.10;2.53;;;27.90;83.30;;;;;;4935827;28;20031;-82
2023/08/15 09:41:25;;;;;;;5.82;2.40;;;28.20;83.10;;;;;;4934005;28;20039;-81
2023/08/15 09:43:52;;;;;;;4.22;2.78;;;28.00;82.50;;;;;;4932245;28;20027;-81
2023/08/15 09:46:19;;;;;;;10.20;3.20;;;28.40;81.60;;;;;;4926945;28;20023;-81
2023/08/15 09:48:47;;;;;;;6.88;2.38;;;29.30;82.40;;;;;;4936182;28;21458;-87
2023/08/15 09:51:14;;;;;;;6.00;3.35;;;29.70;79.30;;;;;;4920824;28;20110;-87
2023/08/15 09:53:45;;;;;;;9.02;3.22;;;29.90;77.50;;;;;;4922174;28;20026;-86
2023/08/15 09:56:12;;;;;;;120.50;57.08;;;29.70;74.60;;;;;;4913706;28;20016;-88
2023/08/15 09:58:38;;;;;;;8.98;3.15;;;29.40;77.40;;;;;;4950289;28;20027;-88
2023/08/15 10:01:10;;;;;;;10.18;2.88;;;29.30;78.30;;;;;;4958469;28;20038;-81
2023/08/15 10:03:38;;;;;;;6.15;3.10;;;29.50;76.20;;;;;;4938998;28;20034;-81
2023/08/15 10:06:07;;;;;;;7.00;2.97;;;28.80;77.70;;;;;;5091686;23;20065;-80
2023/08/15 10:08:36;;;;;;;8.98;3.03;;;29.10;77.20;;;;;;4960477;28;20463;-85
2023/08/15 10:11:05;;;;;;;9.07;2.72;;;29.30;76.20;;;;;;4963207;28;20049;-84
2023/08/15 10:13:35;;;;;;;11.55;3.60;;;29.20;76.60;;;;;;4973741;28;20097;-85
2023/08/15 10:16:01;;;;;;;7.30;3.28;;;28.70;76.40;;;;;;4966589;28;20061;-80
2023/08/15 10:18:28;;;;;;;7.78;3.42;;;28.90;76.40;;;;;;4976079;28;20106;-83
2023/08/15 10:20:56;;;;;;;11.75;3.20;;;28.30;78.00;;;;;;4966179;28;20054;-85
2023/08/15 10:23:36;;;;;;;9.15;3.58;;;29.00;79.60;;;;;;4974074;28;20027;-86
2023/08/15 10:26:02;;;;;;;9.10;3.20;;;29.70;76.00;;;;;;4975883;28;20034;-86
2023/08/15 10:28:29;;;;;;;13.73;4.03;;;29.70;73.90;;;;;;4965560;28;20485;-85
2023/08/15 10:30:57;;;;;;;8.98;2.67;;;29.70;75.40;;;;;;4972748;28;20114;-86
2023/08/15 10:33:26;;;;;;;4.30;2.90;;;30.00;73.50;;;;;;5097813;23;20492;-84
2023/08/15 10:35:55;;;;;;;5.95;2.83;;;30.30;75.70;;;;;;4938260;28;20137;-84
2023/08/15 10:38:28;;;;;;;7.85;3.17;;;30.50;75.30;;;;;;4940460;28;20117;-85
2023/08/15 10:41:01;;;;;;;7.47;3.22;;;29.90;73.00;;;;;;4939618;28;20043;-85
2023/08/15 10:43:30;;;;;;;12.40;4.38;;;29.90;73.40;;;;;;4935920;28;20043;-80
2023/08/15 10:45:59;;;;;;;10.45;3.22;;;29.60;74.40;;;;;;4944336;28;20023;-79
2023/08/15 10:48:49;;;;;;;11.27;3.28;;;29.50;73.70;;;;;;4941033;28;20166;-82
2023/08/15 10:51:23;;;;;;;6.75;2.80;;;29.50;74.30;;;;;;4935162;28;20023;-79
2023/08/15 10:53:56;;;;;;;8.73;3.28;;;29.40;74.80;;;;;;4953225;28;20050;-80
2023/08/15 10:56:25;;;;;;;7.32;3.83;;;29.30;72.40;;;;;;5091824;23;20067;-84
2023/08/15 10:58:50;;;;;;;9.50;3.00;;;29.30;73.30;;;;;;4941055;28;20055;-81
2023/08/15 11:01:20;;;;;;;5.70;2.70;;;28.70;75.50;;;;;;4941300;28;20043;-85
2023/08/15 11:03:47;;;;;;;6.90;2.90;;;28.40;75.30;;;;;;4923160;28;20023;-86
2023/08/15 11:06:13;;;;;;;8.80;3.45;;;28.40;75.70;;;;;;4940436;28;20110;-86
2023/08/15 11:08:47;;;;;;;7.65;3.17;;;28.30;76.60;;;;;;4939942;28;20086;-86
2023/08/15 11:11:12;;;;;;;5.53;2.95;;;28.30;78.10;;;;;;4933209;28;20027;-81
2023/08/15 11:13:44;;;;;;;6.97;3.88;;;28.10;78.30;;;;;;4930307;28;20023;-82
2023/08/15 11:16:11;;;;;;;10.90;3.10;;;27.90;79.00;;;;;;4912731;29;20039;-82
2023/08/15 11:18:37;;;;;;;10.75;2.83;;;27.90;79.10;;;;;;4931618;29;20030;-87
2023/08/15 11:21:08;;;;;;;8.18;3.15;;;27.80;79.20;;;;;;4916647;29;20686;-86
2023/08/15 11:23:33;;;;;;;11.52;3.13;;;27.60;79.10;;;;;;4914866;29;20098;-84
2023/08/15 11:26:09;;;;;;;8.90;3.28;;;27.60;80.30;;;;;;4915512;29;20027;-86
2023/08/15 11:28:36;;;;;;;9.20;3.67;;;27.30;81.00;;;;;;4931962;29;20020;-80
2023/08/15 11:31:10;;;;;;;7.90;3.17;;;27.10;81.40;;;;;;4924366;29;20051;-81
2023/08/15 11:33:36;;;;;;;9.50;3.40;;;27.20;80.90;;;;;;4932668;28;20046;-86
2023/08/15 11:36:03;;;;;;;13.93;6.03;;;27.20;81.00;;;;;;4929484;29;20020;-83
2023/08/15 11:38:30;;;;;;;7.03;2.83;;;27.30;81.60;;;;;;4902625;29;20027;-83
2023/08/15 11:40:57;;;;;;;6.85;2.97;;;27.10;81.70;;;;;;4912674;29;20043;-86
2023/08/15 11:43:25;;;;;;;6.47;2.85;;;27.20;81.70;;;;;;4915067;29;20559;-86
2023/08/15 11:45:51;;;;;;;9.43;2.63;;;27.50;82.30;;;;;;4930797;29;20035;-81
2023/08/15 11:48:17;;;;;;;8.73;2.40;;;27.50;81.70;;;;;;4912668;29;20532;-86
2023/08/15 11:50:45;;;;;;;6.22;2.70;;;27.60;80.60;;;;;;4933084;29;20492;-83
2023/08/15 11:53:14;;;;;;;7.38;3.10;;;27.50;80.70;;;;;;4931397;28;20083;-81
2023/08/15 11:55:40;;;;;;;4.68;2.67;;;27.40;81.70;;;;;;4916929;29;20114;-85
2023/08/15 11:58:23;;;;;;;12.63;3.45;;;27.50;80.60;;;;;;4918339;29;20035;-83
2023/08/15 12:00:51;;;;;;;11.77;2.85;;;27.60;81.30;;;;;;4919043;29;20032;-85
2023/08/15 12:03:19;;;;;;;6.82;3.15;;;27.70;79.90;;;;;;4935352;29;20083;-86
2023/08/15 12:05:46;;;;;;;5.40;2.28;;;27.70;80.00;;;;;;4935100;28;20031;-84
2023/08/15 12:08:14;;;;;;;3.97;2.22;;;27.80;80.00;;;;;;4939969;28;21124;-86
2023/08/15 12:10:40;;;;;;;7.72;2.45;;;27.80;80.20;;;;;;4936014;29;20027;-86
2023/08/15 12:13:06;;;;;;;5.28;2.38;;;27.80;79.00;;;;;;4915983;29;20042;-86
2023/08/15 12:15:31;;;;;;;7.03;2.85;;;27.80;79.40;;;;;;4936325;28;20034;-85
2023/08/15 12:17:59;;;;;;;6.68;2.80;;;28.10;80.20;;;;;;4938549;28;20079;-85
2023/08/15 12:20:25;;;;;;;6.72;2.50;;;28.10;77.90;;;;;;4934665;28;20108;-85
2023/08/15 12:22:50;;;;;;;10.18;2.85;;;28.20;78.60;;;;;;4938685;29;20027;-86
2023/08/15 12:25:16;;;;;;;8.18;2.83;;;28.30;77.70;;;;;;4934213;29;20028;-81
2023/08/15 12:27:42;;;;;;;3.83;2.50;;;28.30;78.30;;;;;;4919247;29;20032;-86
2023/08/15 12:30:07;;;;;;;7.35;2.75;;;28.40;78.90;;;;;;4918482;29;20449;-85
2023/08/15 12:32:35;;;;;;;7.03;2.45;;;28.80;77.40;;;;;;4916778;29;20471;-86
2023/08/15 12:35:01;;;;;;;5.65;2.70;;;28.80;76.10;;;;;;4935737;29;20121;-81
2023/08/15 12:37:26;;;;;;;6.30;2.80;;;29.30;74.20;;;;;;4933714;29;20043;-80
2023/08/15 12:39:52;;;;;;;8.02;2.85;;;29.50;72.80;;;;;;4934365;29;20023;-80
2023/08/15 12:42:18;;;;;;;4.45;2.63;;;29.60;73.90;;;;;;4936268;29;20023;-82
2023/08/15 12:44:44;;;;;;;4.55;2.38;;;29.50;74.90;;;;;;4937105;29;20041;-80
2023/08/15 12:47:10;;;;;;;8.57;2.90;;;29.50;72.80;;;;;;4919494;29;20027;-78